createdAt,value
2023-02-18T00:02:04.784Z,54.17
2023-02-18T00:04:33.994Z,54.93
2023-02-18T00:07:03.546Z,55.43
2023-02-18T00:09:33.039Z,51.07
2023-02-18T00:12:03.574Z,50.00
2023-02-18T00:14:32.561Z,52.70
2023-02-18T00:17:01.784Z,49.70
2023-02-18T00:19:30.540Z,49.30
2023-02-18T00:21:59.715Z,45.43
2023-02-18T00:24:28.305Z,51.30
2023-02-18T00:26:57.470Z,51.07
2023-02-18T00:29:27.782Z,48.27
2023-02-18T00:31:56.437Z,48.97
2023-02-18T00:34:25.140Z,45.87
2023-02-18T00:36:53.654Z,47.00
2023-02-18T00:39:22.212Z,46.13
2023-02-18T00:41:50.833Z,43.87
2023-02-18T00:44:19.713Z,44.00
2023-02-18T00:46:50.158Z,44.93
2023-02-18T00:49:19.054Z,45.63
2023-02-18T00:51:47.633Z,44.27
2023-02-18T00:54:16.188Z,45.47
2023-02-18T00:56:44.796Z,46.03
2023-02-18T00:59:13.332Z,47.47
2023-02-18T01:01:41.999Z,47.93
2023-02-18T01:04:12.199Z,46.93
2023-02-18T01:06:41.086Z,49.87
2023-02-18T01:09:09.921Z,51.63
2023-02-18T01:11:38.984Z,50.03
2023-02-18T01:14:08.097Z,50.47
2023-02-18T01:16:36.781Z,52.47
2023-02-18T01:19:05.467Z,54.80
2023-02-18T01:21:35.626Z,53.20
2023-02-18T01:24:04.494Z,55.07
2023-02-18T01:26:33.544Z,53.73
2023-02-18T01:29:02.185Z,53.07
2023-02-18T01:31:31.133Z,52.67
2023-02-18T01:33:59.703Z,51.37
2023-02-18T01:36:28.231Z,50.73
2023-02-18T01:38:58.626Z,49.70
2023-02-18T01:41:27.482Z,50.57
2023-02-18T01:44:14.696Z,48.10
2023-02-18T01:46:43.297Z,49.40
2023-02-18T01:49:13.995Z,50.00
2023-02-18T01:51:46.722Z,49.43
2023-02-18T01:54:20.879Z,49.53
2023-02-18T01:56:54.043Z,48.00
2023-02-18T01:59:27.491Z,50.80
2023-02-18T02:01:56.977Z,50.97
2023-02-18T02:04:26.108Z,49.87
2023-02-18T02:06:54.738Z,49.23
2023-02-18T02:09:28.520Z,48.10
2023-02-18T02:12:29.822Z,51.53
2023-02-18T02:15:25.164Z,49.97
2023-02-18T02:18:07.333Z,47.33
2023-02-18T02:21:09.476Z,48.90
2023-02-18T02:24:13.930Z,46.57
2023-02-18T02:27:11.630Z,48.37
2023-02-18T02:30:22.987Z,47.77
2023-02-18T02:33:24.238Z,47.13
2023-02-18T02:36:01.737Z,48.37
2023-02-18T02:38:35.640Z,47.30
2023-02-18T02:41:15.386Z,48.33
2023-02-18T02:43:54.394Z,48.30
2023-02-18T02:46:29.615Z,46.20
2023-02-18T02:49:07.700Z,44.87
2023-02-18T02:51:44.729Z,44.87
2023-02-18T02:54:16.767Z,45.27
2023-02-18T02:56:45.761Z,42.90
2023-02-18T02:59:17.625Z,42.37
2023-02-18T03:02:03.287Z,42.50
2023-02-18T03:05:05.313Z,41.33
2023-02-18T03:07:58.311Z,37.93
2023-02-18T03:10:42.265Z,36.67
2023-02-18T03:13:19.326Z,36.97
2023-02-18T03:15:54.426Z,38.30
2023-02-18T03:18:33.043Z,34.53
2023-02-18T03:21:07.111Z,34.73
2023-02-18T03:23:43.427Z,31.83
2023-02-18T03:26:13.985Z,32.47
2023-02-18T03:28:43.367Z,30.07
2023-02-18T03:31:16.407Z,30.57
2023-02-18T03:33:48.095Z,28.23
2023-02-18T03:36:17.109Z,27.10
2023-02-18T03:38:52.312Z,26.03
2023-02-18T03:41:20.827Z,25.60
2023-02-18T03:43:53.027Z,24.23
2023-02-18T03:46:21.677Z,24.13
2023-02-18T03:48:50.216Z,23.40
2023-02-18T03:51:19.502Z,23.23
2023-02-18T03:53:49.808Z,22.80
2023-02-18T03:56:18.583Z,22.20
2023-02-18T03:58:47.551Z,22.47
2023-02-18T04:01:16.151Z,23.20
2023-02-18T04:03:44.816Z,25.47
2023-02-18T04:06:13.801Z,26.07
2023-02-18T04:08:42.492Z,29.30
2023-02-18T04:11:12.467Z,32.37
2023-02-18T04:13:41.036Z,33.73
2023-02-18T04:16:10.232Z,32.47
2023-02-18T04:18:38.775Z,33.87
2023-02-18T04:21:07.620Z,34.50
2023-02-18T04:23:36.237Z,33.10
2023-02-18T04:26:05.298Z,31.90
2023-02-18T04:28:35.243Z,33.30
2023-02-18T04:31:05.593Z,34.97
2023-02-18T04:33:34.092Z,36.30
2023-02-18T04:36:03.936Z,38.00
2023-02-18T04:38:32.408Z,41.17
2023-02-18T04:41:00.991Z,41.10
2023-02-18T04:43:29.553Z,42.53
2023-02-18T04:45:59.792Z,43.77
2023-02-18T04:48:28.377Z,46.40
2023-02-18T04:50:57.011Z,48.33
2023-02-18T04:53:25.489Z,49.10
2023-02-18T04:55:54.617Z,48.87
2023-02-18T04:58:23.329Z,45.37
2023-02-18T05:00:53.415Z,47.93
2023-02-18T05:03:23.384Z,48.77
2023-02-18T05:05:52.088Z,46.87
2023-02-18T05:08:21.104Z,47.83
2023-02-18T05:10:50.144Z,50.77
2023-02-18T05:13:18.716Z,47.73
2023-02-18T05:15:47.226Z,46.93
2023-02-18T05:18:16.073Z,45.03
2023-02-18T05:20:45.974Z,40.73
2023-02-18T05:23:14.884Z,41.23
2023-02-18T05:25:47.319Z,38.43
2023-02-18T05:28:15.865Z,35.10
2023-02-18T05:30:45.022Z,31.33
2023-02-18T05:33:13.997Z,31.03
2023-02-18T05:35:42.462Z,29.27
2023-02-18T05:38:12.512Z,22.30
2023-02-18T05:40:41.029Z,24.37
2023-02-18T05:43:10.170Z,22.40
2023-02-18T05:45:38.945Z,21.80
2023-02-18T05:48:07.542Z,21.07
2023-02-18T05:50:36.248Z,21.70
2023-02-18T05:53:04.858Z,20.30
2023-02-18T05:55:39.480Z,22.80
2023-02-18T05:58:08.369Z,21.37
2023-02-18T06:00:36.875Z,21.93
2023-02-18T06:03:05.541Z,21.80
2023-02-18T06:05:34.405Z,20.60
2023-02-18T06:08:03.094Z,19.87
2023-02-18T06:10:31.578Z,19.33
2023-02-18T06:13:02.600Z,17.00
2023-02-18T06:15:31.392Z,15.83
2023-02-18T06:17:59.841Z,13.77
2023-02-18T06:20:28.355Z,8.63
2023-02-18T06:22:56.842Z,7.27
2023-02-18T06:25:25.796Z,6.53
2023-02-18T06:27:54.274Z,7.10
2023-02-18T06:30:24.714Z,5.90
2023-02-18T06:32:53.316Z,5.33
2023-02-18T06:35:22.179Z,5.10
2023-02-18T06:37:50.811Z,4.70
2023-02-18T06:40:19.709Z,4.30
2023-02-18T06:42:48.275Z,4.60
2023-02-18T06:45:16.980Z,4.63
2023-02-18T06:47:46.948Z,3.67
2023-02-18T06:50:15.990Z,4.27
2023-02-18T06:52:45.024Z,3.90
2023-02-18T06:55:13.982Z,3.67
2023-02-18T06:57:42.886Z,3.37
2023-02-18T07:00:12.067Z,3.47
2023-02-18T07:02:40.645Z,3.63
2023-02-18T07:05:11.014Z,3.77
2023-02-18T07:07:40.207Z,3.77
2023-02-18T07:10:09.865Z,3.60
2023-02-18T07:12:38.692Z,3.23
2023-02-18T07:15:07.762Z,3.47
2023-02-18T07:17:37.042Z,3.90
2023-02-18T07:20:06.552Z,3.90
2023-02-18T07:22:36.934Z,3.60
2023-02-18T07:25:06.108Z,3.60
2023-02-18T07:27:35.394Z,3.30
2023-02-18T07:30:04.703Z,3.10
2023-02-18T07:32:33.504Z,3.20
2023-02-18T07:35:02.238Z,3.30
2023-02-18T07:37:30.798Z,3.20
2023-02-18T07:40:00.749Z,3.07
2023-02-18T07:42:30.044Z,3.20
2023-02-18T07:44:58.781Z,3.60
2023-02-18T07:47:27.371Z,3.17
2023-02-18T07:49:55.918Z,3.50
2023-02-18T07:52:24.900Z,3.23
2023-02-18T07:54:53.897Z,3.30
2023-02-18T07:57:26.282Z,3.50
2023-02-18T07:59:54.880Z,3.60
2023-02-18T08:02:25.100Z,3.43
2023-02-18T08:04:53.917Z,3.47
2023-02-18T08:07:24.275Z,3.77
2023-02-18T08:09:52.861Z,3.83
2023-02-18T08:12:21.452Z,4.10
2023-02-18T08:14:51.522Z,4.50
2023-02-18T08:17:20.494Z,4.47
2023-02-18T08:19:49.082Z,4.50
2023-02-18T08:22:17.723Z,4.30
2023-02-18T08:24:46.904Z,5.10
2023-02-18T08:27:16.336Z,5.03
2023-02-18T08:29:44.914Z,5.40
2023-02-18T08:32:15.184Z,5.37
2023-02-18T08:34:43.848Z,4.90
2023-02-18T08:37:12.714Z,4.80
2023-02-18T08:39:41.916Z,4.10
2023-02-18T08:42:13.489Z,4.30
2023-02-18T08:44:42.255Z,3.80
2023-02-18T08:48:16.969Z,3.70
2023-02-18T08:50:01.263Z,4.03
2023-02-18T08:52:30.272Z,4.50
2023-02-18T08:54:58.975Z,4.50
2023-02-18T08:57:29.992Z,4.50
2023-02-18T08:59:58.916Z,4.70
2023-02-18T09:02:29.860Z,4.87
2023-02-18T09:05:00.957Z,5.20
2023-02-18T09:07:29.881Z,4.53
2023-02-18T09:09:59.034Z,4.53
2023-02-18T09:12:29.436Z,4.70
2023-02-18T09:14:58.281Z,5.60
2023-02-18T09:17:28.065Z,6.40
2023-02-18T09:19:57.246Z,8.30
2023-02-18T09:22:28.005Z,6.73
2023-02-18T09:24:57.585Z,6.87
2023-02-18T09:27:28.841Z,7.40
2023-02-18T09:29:57.553Z,7.70
2023-02-18T09:32:35.185Z,7.53
2023-02-18T09:35:05.206Z,8.30
2023-02-18T09:37:35.517Z,7.50
2023-02-18T09:40:05.330Z,7.87
2023-02-18T09:42:36.317Z,7.37
2023-02-18T09:45:08.553Z,8.13
2023-02-18T09:47:40.478Z,7.77
2023-02-18T09:50:16.949Z,7.27
2023-02-18T09:52:47.216Z,6.43
2023-02-18T09:55:20.525Z,6.37
2023-02-18T09:57:52.552Z,7.30
2023-02-18T10:00:24.511Z,7.20
2023-02-18T10:02:58.408Z,6.83
2023-02-18T10:05:29.587Z,6.83
2023-02-18T10:08:05.876Z,7.80
2023-02-18T10:10:41.150Z,7.97
2023-02-18T10:13:15.784Z,8.93
2023-02-18T10:15:45.724Z,8.70
2023-02-18T10:21:11.757Z,9.00
2023-02-18T10:23:44.789Z,8.67
2023-02-18T10:26:19.881Z,8.80
2023-02-18T10:28:49.383Z,9.17
2023-02-18T10:31:24.012Z,9.10
2023-02-18T10:33:58.850Z,8.80
2023-02-18T10:36:31.405Z,9.13
2023-02-18T10:39:19.597Z,9.67
2023-02-18T10:41:55.290Z,8.87
2023-02-18T10:44:36.804Z,8.47
2023-02-18T10:47:21.348Z,8.57
2023-02-18T10:50:01.620Z,9.23
2023-02-18T10:52:35.091Z,9.00
2023-02-18T10:55:10.041Z,8.63
2023-02-18T10:57:48.548Z,8.13
2023-02-18T11:00:23.415Z,7.80
2023-02-18T11:03:12.008Z,8.77
2023-02-18T11:05:40.704Z,8.13
2023-02-18T11:08:12.106Z,7.90
2023-02-18T11:10:45.888Z,7.80
2023-02-18T11:13:18.681Z,8.23
2023-02-18T11:16:00.044Z,8.10
2023-02-18T11:18:39.343Z,9.10
2023-02-18T11:21:21.560Z,8.47
2023-02-18T11:23:52.344Z,8.10
2023-02-18T11:26:29.689Z,8.00
2023-02-18T11:29:04.403Z,8.33
2023-02-18T11:31:43.672Z,7.60
2023-02-18T11:34:18.762Z,8.40
2023-02-18T11:36:48.844Z,8.07
2023-02-18T11:39:22.488Z,8.27
2023-02-18T11:41:58.083Z,8.43
2023-02-18T11:44:32.549Z,8.33
2023-02-18T11:47:03.468Z,7.80
2023-02-18T11:49:34.915Z,7.63
2023-02-18T11:52:16.627Z,8.57
2023-02-18T11:54:59.962Z,9.00
2023-02-18T11:57:30.359Z,7.97
2023-02-18T12:00:00.759Z,8.57
2023-02-18T12:02:36.269Z,7.87
2023-02-18T12:05:13.611Z,7.53
2023-02-18T12:07:47.650Z,7.40
2023-02-18T12:10:21.521Z,7.37
2023-02-18T12:12:59.926Z,7.13
2023-02-18T12:15:36.231Z,7.20
2023-02-18T12:18:30.236Z,7.20
2023-02-18T12:21:15.943Z,7.63
2023-02-18T12:23:56.010Z,8.00
2023-02-18T12:26:29.957Z,7.70
2023-02-18T12:29:17.882Z,8.27
2023-02-18T12:32:04.039Z,7.43
2023-02-18T12:34:44.702Z,7.17
2023-02-18T12:37:48.862Z,6.77
2023-02-18T12:40:38.054Z,6.80
2023-02-18T12:43:17.188Z,7.23
2023-02-18T12:46:11.080Z,7.50
2023-02-18T12:49:08.996Z,7.47
2023-02-18T12:51:49.276Z,8.27
2023-02-18T12:54:32.209Z,8.17
2023-02-18T12:57:18.946Z,7.20
2023-02-18T13:00:15.743Z,7.93
2023-02-18T13:03:15.882Z,7.60
2023-02-18T13:05:52.628Z,7.43
2023-02-18T13:08:32.844Z,7.50
2023-02-18T13:11:21.188Z,7.70
2023-02-18T13:13:58.376Z,7.73
2023-02-18T13:16:30.081Z,8.20
2023-02-18T13:19:07.346Z,8.63
2023-02-18T13:21:39.315Z,10.17
2023-02-18T13:24:13.229Z,9.33
2023-02-18T13:26:45.847Z,9.70
2023-02-18T13:29:28.056Z,11.20
2023-02-18T13:32:13.253Z,12.10
2023-02-18T13:34:51.422Z,11.73
2023-02-18T13:37:28.745Z,12.63
2023-02-18T13:40:00.136Z,12.83
2023-02-18T13:42:38.051Z,14.53
2023-02-18T13:45:24.403Z,14.83
2023-02-18T13:47:54.363Z,12.17
2023-02-18T13:50:32.429Z,12.33
2023-02-18T13:53:22.536Z,14.27
2023-02-18T13:56:06.883Z,15.87
2023-02-18T13:58:43.642Z,15.90
2023-02-18T14:01:37.371Z,16.60
2023-02-18T14:04:26.619Z,18.83
2023-02-18T14:07:28.039Z,18.20
2023-02-18T14:10:01.541Z,19.73
2023-02-18T14:12:41.165Z,20.97
2023-02-18T14:15:48.424Z,21.40
2023-02-18T14:18:59.522Z,23.57
2023-02-18T14:21:43.601Z,23.57
2023-02-18T14:24:14.816Z,24.83
2023-02-18T14:26:49.638Z,25.60
2023-02-18T14:29:31.227Z,22.97
2023-02-18T14:32:05.495Z,20.60
2023-02-18T14:35:07.149Z,24.77
2023-02-18T14:38:11.557Z,21.47
2023-02-18T14:41:07.086Z,23.00
2023-02-18T14:43:55.966Z,22.20
2023-02-18T14:46:37.684Z,20.67
2023-02-18T14:49:35.586Z,21.17
2023-02-18T14:52:09.553Z,20.70
2023-02-18T14:54:40.838Z,21.33
2023-02-18T14:57:16.772Z,19.23
2023-02-18T14:59:48.585Z,20.37
2023-02-18T15:02:22.194Z,22.00
2023-02-18T15:04:53.863Z,18.70
2023-02-18T15:07:24.533Z,20.10
2023-02-18T15:09:56.116Z,18.70
2023-02-18T15:12:29.016Z,21.43
2023-02-18T15:15:11.040Z,18.90
2023-02-18T15:17:46.010Z,21.07
2023-02-18T15:20:20.999Z,20.27
2023-02-18T15:22:51.393Z,18.40
2023-02-18T15:25:21.776Z,17.93
2023-02-18T15:27:58.371Z,18.13
2023-02-18T15:30:30.136Z,17.70
2023-02-18T15:33:04.160Z,18.27
2023-02-18T15:35:35.076Z,17.60
2023-02-18T15:38:04.769Z,18.13
2023-02-18T15:40:36.224Z,17.73
2023-02-18T15:43:08.628Z,19.60
2023-02-18T15:45:40.460Z,18.13
2023-02-18T15:48:21.073Z,18.43
2023-02-18T15:51:00.728Z,19.33
2023-02-18T15:53:37.233Z,20.10
2023-02-18T15:56:11.810Z,27.40
2023-02-18T15:58:42.357Z,18.57
2023-02-18T16:01:29.799Z,18.70
2023-02-18T16:03:59.987Z,18.20
2023-02-18T16:06:30.579Z,17.37
2023-02-18T16:09:03.176Z,16.77
2023-02-18T16:11:35.434Z,17.00
2023-02-18T16:14:11.995Z,17.13
2023-02-18T16:16:41.331Z,16.40
2023-02-18T16:19:26.183Z,16.73
2023-02-18T16:21:54.951Z,16.70
2023-02-18T16:24:26.683Z,16.70
2023-02-18T16:26:58.716Z,17.70
2023-02-18T16:29:37.507Z,17.20
2023-02-18T16:32:09.662Z,16.37
2023-02-18T16:34:38.998Z,18.10
2023-02-18T16:37:28.336Z,19.33
2023-02-18T16:39:58.153Z,20.40
2023-02-18T16:42:27.627Z,20.77
2023-02-18T16:44:57.856Z,21.80
2023-02-18T16:47:27.016Z,22.17
2023-02-18T16:49:56.499Z,22.67
2023-02-18T16:52:25.565Z,21.93
2023-02-18T16:54:55.551Z,22.80
2023-02-18T16:57:24.686Z,22.30
2023-02-18T16:59:53.444Z,23.27
2023-02-18T17:02:24.436Z,24.10
2023-02-18T17:04:57.769Z,24.57
2023-02-18T17:07:26.971Z,24.50
2023-02-18T17:09:55.949Z,23.07
2023-02-18T17:12:25.398Z,23.87
2023-02-18T17:14:54.332Z,23.23
2023-02-18T17:17:24.502Z,22.77
2023-02-18T17:19:53.472Z,23.33
2023-02-18T17:22:23.055Z,26.57
2023-02-18T17:24:51.649Z,24.77
2023-02-18T17:27:20.810Z,24.17
2023-02-18T17:29:49.687Z,23.60
2023-02-18T17:32:18.750Z,24.23
2023-02-18T17:34:50.931Z,24.43
2023-02-18T17:37:19.930Z,28.33
2023-02-18T17:39:49.274Z,28.30
2023-02-18T17:42:18.448Z,29.50
2023-02-18T17:44:47.337Z,27.93
2023-02-18T17:47:17.119Z,27.73
2023-02-18T17:49:46.303Z,27.50
2023-02-18T17:52:30.930Z,28.63
2023-02-18T17:54:59.955Z,27.23
2023-02-18T17:57:28.962Z,27.87
2023-02-18T17:59:58.504Z,27.50
2023-02-18T18:02:30.203Z,28.93
2023-02-18T18:04:59.165Z,30.67
2023-02-18T18:07:35.776Z,31.03
2023-02-18T18:10:09.826Z,30.63
2023-02-18T18:12:39.939Z,29.30
2023-02-18T18:15:24.506Z,29.30
2023-02-18T18:17:55.230Z,33.47
2023-02-18T18:20:25.474Z,27.57
2023-02-18T18:22:58.457Z,27.90
2023-02-18T18:25:30.894Z,29.17
2023-02-18T18:28:00.374Z,30.10
2023-02-18T18:30:32.666Z,29.10
2023-02-18T18:33:01.684Z,30.80
2023-02-18T18:35:35.261Z,28.70
2023-02-18T18:38:06.078Z,29.87
2023-02-18T18:40:37.853Z,27.70
2023-02-18T18:43:14.007Z,27.90
2023-02-18T18:45:42.965Z,27.50
2023-02-18T18:48:12.234Z,27.93
2023-02-18T18:50:42.416Z,27.73
2023-02-18T18:53:19.974Z,29.77
2023-02-18T18:55:49.813Z,28.77
2023-02-18T18:58:24.500Z,30.97
2023-02-18T19:00:56.795Z,29.03
2023-02-18T19:03:27.594Z,29.80
2023-02-18T19:06:02.869Z,29.30
2023-02-18T19:08:34.397Z,28.07
2023-02-18T19:11:04.247Z,30.93
2023-02-18T19:13:33.993Z,31.17
2023-02-18T19:16:07.534Z,30.17
2023-02-18T19:18:36.900Z,30.10
2023-02-18T19:21:06.660Z,30.77
2023-02-18T19:23:38.019Z,31.07
2023-02-18T19:26:07.226Z,29.73
2023-02-18T19:28:36.271Z,33.47
2023-02-18T19:31:10.734Z,34.77
2023-02-18T19:33:40.505Z,31.70
2023-02-18T19:36:13.823Z,33.17
2023-02-18T19:38:44.545Z,34.63
2023-02-18T19:41:17.114Z,34.10
2023-02-18T19:43:47.293Z,32.93
2023-02-18T19:46:20.638Z,34.77
2023-02-18T19:48:52.893Z,36.13
2023-02-18T19:51:26.774Z,34.37
2023-02-18T19:53:57.398Z,35.00
2023-02-18T19:56:27.027Z,36.97
2023-02-18T19:58:58.132Z,35.87
2023-02-18T20:01:27.400Z,36.23
2023-02-18T20:03:57.039Z,37.13
2023-02-18T20:06:26.192Z,32.53
2023-02-18T20:09:01.760Z,35.57
2023-02-18T20:11:33.454Z,37.03
2023-02-18T20:14:02.626Z,35.40
2023-02-18T20:16:33.115Z,34.97
2023-02-18T20:19:02.268Z,34.53
2023-02-18T20:21:34.063Z,28.17
2023-02-18T20:24:04.661Z,29.53
2023-02-18T20:26:34.503Z,31.00
2023-02-18T20:29:06.210Z,30.77
2023-02-18T20:31:36.109Z,33.27
2023-02-18T20:34:04.962Z,30.97
2023-02-18T20:36:34.657Z,25.80
2023-02-18T20:39:15.770Z,25.37
2023-02-18T20:41:47.630Z,20.03
2023-02-18T20:44:17.588Z,19.80
2023-02-18T20:46:47.857Z,20.97
2023-02-18T20:49:18.366Z,22.83
2023-02-18T20:51:47.389Z,23.83
2023-02-18T20:54:20.906Z,25.80
2023-02-18T20:56:52.481Z,30.30
2023-02-18T20:59:23.390Z,29.93
2023-02-18T21:01:52.340Z,31.60
2023-02-18T21:04:26.898Z,32.33
2023-02-18T21:06:55.695Z,34.23
2023-02-18T21:09:26.806Z,36.90
2023-02-18T21:11:56.060Z,40.30
2023-02-18T21:14:27.242Z,41.30
2023-02-18T21:17:03.929Z,39.93
2023-02-18T21:19:32.706Z,40.53
2023-02-18T21:22:04.267Z,39.33
2023-02-18T21:24:35.863Z,41.67
2023-02-18T21:27:08.315Z,38.77
2023-02-18T21:29:37.062Z,39.07
2023-02-18T21:32:06.648Z,36.60
2023-02-18T21:34:36.223Z,39.70
2023-02-18T21:37:05.595Z,38.27
2023-02-18T21:39:36.527Z,37.90
2023-02-18T21:42:08.259Z,40.17
2023-02-18T21:44:42.333Z,38.43
2023-02-18T21:47:12.730Z,37.60
2023-02-18T21:49:42.441Z,40.23
2023-02-18T21:52:11.163Z,37.30
2023-02-18T21:54:44.795Z,37.23
2023-02-18T21:57:16.438Z,36.67
2023-02-18T21:59:46.704Z,37.00
2023-02-18T22:02:19.672Z,36.40
2023-02-18T22:04:50.796Z,37.17
2023-02-18T22:07:22.117Z,38.70
2023-02-18T22:09:53.995Z,37.37
2023-02-18T22:12:26.705Z,36.80
2023-02-18T22:14:55.552Z,36.53
2023-02-18T22:17:24.497Z,35.53
2023-02-18T22:19:53.435Z,34.53
2023-02-18T22:22:23.233Z,34.83
2023-02-18T22:24:53.905Z,34.37
2023-02-18T22:27:22.751Z,34.90
2023-02-18T22:29:54.272Z,33.00
2023-02-18T22:32:23.763Z,34.47
2023-02-18T22:34:52.678Z,32.27
2023-02-18T22:37:21.782Z,31.27
2023-02-18T22:39:55.285Z,33.30
2023-02-18T22:42:24.633Z,34.30
2023-02-18T22:44:53.767Z,34.37
2023-02-18T22:47:23.599Z,35.07
2023-02-18T22:49:52.625Z,34.37
2023-02-18T22:52:21.392Z,37.23
2023-02-18T22:54:50.020Z,36.43
2023-02-18T22:57:20.581Z,36.90
2023-02-18T22:59:49.704Z,37.13
2023-02-18T23:02:18.325Z,39.50
2023-02-18T23:04:47.013Z,40.30
2023-02-18T23:07:15.717Z,41.10
2023-02-18T23:09:44.359Z,39.17
2023-02-18T23:12:13.164Z,38.87
2023-02-18T23:14:43.384Z,39.37
2023-02-18T23:17:17.939Z,38.90
2023-02-18T23:19:48.373Z,39.57
2023-02-18T23:22:19.319Z,38.97
2023-02-18T23:24:49.713Z,36.67
2023-02-18T23:27:19.202Z,38.60
2023-02-18T23:29:49.381Z,38.47
2023-02-18T23:32:18.535Z,38.67
2023-02-18T23:34:47.742Z,37.07
2023-02-18T23:37:16.702Z,39.27
2023-02-18T23:39:47.604Z,39.67
2023-02-18T23:42:17.172Z,39.63
2023-02-18T23:44:50.212Z,40.10
2023-02-18T23:47:20.412Z,37.67
2023-02-18T23:49:48.998Z,37.33
2023-02-18T23:52:17.772Z,38.53
2023-02-18T23:54:46.531Z,40.83
2023-02-18T23:57:15.097Z,40.27
2023-02-18T23:59:44.549Z,44.37
